Aviation Digital Data Service (ADDS)

Output produced by METARs form (0232 UTC 22 April 2019)
found at http://www.aviationweather.gov/metar/data/
 
Forecast for: KTPA (TAMPA , FL, US)
Text: KTPA 212320Z 2200/2306 30011KT P6SM SKC
Forecast period: 0000 to 0200 UTC 22 April 2019
Forecast type: FROM: standard forecast or significant change
Winds: from the WNW (300 degrees) at 13 MPH (11 knots; 5.7 m/s)
Visibility: 6 or more miles 10+ km)
Clouds: clear skies
Weather: no significant weather forecast for this period
Text: FM220200 02004KT P6SM SKC
Forecast period: 0200 to 1600 UTC 22 April 2019
Forecast type: FROM: standard forecast or significant change
Winds: from the NNE (20 degrees) at 5 MPH (4 knots; 2.1 m/s)
Visibility: 6 or more miles 10+ km)
Clouds: clear skies
Weather: no significant weather forecast for this period
Text: FM221600 29008KT P6SM SKC
Forecast period: 1600 UTC 22 April 2019 to 0600 UTC 23 April 2019
Forecast type: FROM: standard forecast or significant change
Winds: from the WNW (290 degrees) at 9 MPH (8 knots; 4.1 m/s)
Visibility: 6 or more miles 10+ km)
Clouds: clear skies
Weather: no significant weather forecast for this period